Stations météo

réclame
Mon MeteoGroup
Rodkallen, Suède (2188): Température de l'air & dewpoint: 18.01.2018 04:00:00 - 24.01.2018 04:00:00 (CET)Rodkallen, Suède (2188): Vitesse du vent & gusts: 18.01.2018 04:00:00 - 24.01.2018 04:00:00 (CET)Rodkallen, Suède (2188): Direction du vent: 18.01.2018 04:00:00 - 24.01.2018 04:00:00 (CET)Rodkallen, Suède (2188): visibility: 18.01.2018 04:00:00 - 24.01.2018 04:00:00 (CET)Rodkallen, Suède (2188): Quantités de précipitations: 18.01.2018 04:00:00 - 24.01.2018 04:00:00 (CET)
Date & Time tt [°C] td [°C] ff [km/h] ff [knt] fx [km/h] fx [knt] dd vv [km] rr [mm]
24.01.2018 04:00:00 -2,6 -3,5 20 11 34 19 SE 3,7 0,6
24.01.2018 03:00:00 -14,3 -16,4 24 13 29 16 N 1,9 0,3
24.01.2018 02:00:00 -16,4 -18,8 18 10 23 12 NNE 3,9 0,1
24.01.2018 01:00:00 -17,6 -19,9 16 8 22 12 N 2,3 0,0
24.01.2018 00:00:00 -18,3 -20,8 16 8 19 10 N 4,8 0,0
23.01.2018 23:00:00 -19,1 -21,7 13 7 16 9 N 13 0,0
23.01.2018 22:00:00 -18,9 -21,3 9 5 12 7 N 8 0,0
23.01.2018 21:00:00 -18,4 -20,9 8 4 10 5 N 10 0,0
23.01.2018 20:00:00 -18,2 -20,7 7 4 10 6 NNE 24 0,0
23.01.2018 19:00:00 -19,4 -22,0 6 3 10 6 N 10 0,0
23.01.2018 18:00:00 -20,6 -23,3 7 4 10 5 NNW 10 0,0
23.01.2018 17:00:00 -19,9 -22,5 4 2 8 4 N 47 0,0
23.01.2018 16:00:00 -20,6 -23,3 3 2 11 6 NNW 5 0,0
23.01.2018 15:00:00 -20,1 -22,7 7 4 11 6 NNW 31 0,0
23.01.2018 14:00:00 -18,0 -20,5 4 2 11 6 W 4,1 0,0
23.01.2018 13:00:00 -20,6 -23,3 4 2 14 7 NNW 35 0,0
23.01.2018 12:00:00 -17,1 -19,4 9 5 16 9 WNW 3,2 0,0
23.01.2018 11:00:00 -16,4 -18,8 11 6 19 10 W 5 0,0
23.01.2018 10:00:00 -16,4 -18,8 13 7 19 10 W 8 0,0
23.01.2018 09:00:00 -18,0 -20,3 11 6 22 12 WNW 3,5 0,0
23.01.2018 08:00:00 -18,5 -20,9 11 6 22 12 WNW 4,4 0,0
23.01.2018 07:00:00 -18,2 -20,7 14 8 18 10 WNW 4,7 0,0
23.01.2018 06:00:00 -19,5 -22,1 14 8 22 12 WNW 7 0,0
23.01.2018 05:00:00 -19,9 -22,5 13 7 22 12 NW 10 0,0
23.01.2018 04:00:00 -19,8 -22,4 17 9 21 11 WNW 13 0,0
23.01.2018 03:00:00 -19,9 -22,5 14 8 21 11 NW 23 0,0
23.01.2018 02:00:00 -19,5 -22,1 15 8 22 12 NW 10 0,0
23.01.2018 01:00:00 -19,0 -21,4 16 9 23 12 NW 16 0,0
23.01.2018 00:00:00 -19,0 -21,4 17 9 23 12 NW 11 0,1
22.01.2018 23:00:00 -19,0 -21,4 16 8 27 14 NW 11 0,0
22.01.2018 22:00:00 -19,0 -21,4 15 8 27 14 NW 11 0,0
22.01.2018 21:00:00 -18,7 -21,1 16 8 26 14 NW 12 0,0
22.01.2018 20:00:00 -19,2 -21,6 19 10 24 13 NNW 23 0,0
22.01.2018 19:00:00 -19,0 -21,4 18 10 24 13 N 15 0,0
22.01.2018 18:00:00 -18,9 -21,3 16 9 25 14 N 14 0,0
22.01.2018 17:00:00 -18,7 -21,0 17 9 25 14 NNW 17 0,0
22.01.2018 16:00:00 -18,9 -21,3 18 10 29 16 N 49 0,0
22.01.2018 15:00:00 -18,5 -20,9 22 12 30 16 N 27 0,0
22.01.2018 14:00:00 -17,4 -19,7 22 12 27 15 N 20 0,0
22.01.2018 13:00:00 -17,1 -19,4 21 11 27 14 N 15 0,0
22.01.2018 12:00:00 -17,0 -19,3 22 12 27 14 N 4,7 0,0
22.01.2018 11:00:00 -16,9 -19,2 19 10 28 15 N 17 0,0
22.01.2018 10:00:00 -17,1 -19,7 23 12 29 15 N 11 0,1
22.01.2018 09:00:00 -17,1 -19,7 21 11 29 15 N 11 0,0
22.01.2018 08:00:00 -17,0 -19,5 23 13 28 15 N 11 0,0
22.01.2018 07:00:00 -16,9 -19,5 22 12 28 15 N 7 0,0
22.01.2018 06:00:00 -17,0 -19,5 21 11 28 15 N 7 0,0
22.01.2018 05:00:00 -16,7 -19,2 23 12 30 16 N 13 0,0
22.01.2018 04:00:00 -16,8 -19,3 18 10 30 16 N 22 0,0
22.01.2018 03:00:00 -16,7 -19,2 23 12 29 16 N 6 0,0
22.01.2018 02:00:00 -16,4 -18,8 24 13 29 16 N 4,2 0,0
22.01.2018 01:00:00 -15,8 -18,2 22 12 29 16 N 11 0,0
22.01.2018 00:00:00 -15,4 -17,8 21 11 28 15 N 11 0,0
21.01.2018 23:00:00 -14,7 -16,9 21 12 29 16 N 18 0,0
21.01.2018 22:00:00 -14,2 -16,3 23 12 31 17 N 13 0,0
21.01.2018 21:00:00 -13,2 -15,2 24 13 35 19 N 4,5 0,0
21.01.2018 20:00:00 -12,3 -14,2 27 15 35 19 N 9 0,0
21.01.2018 19:00:00 -10,9 -12,6 29 15 36 19 NNE 14 0,0
21.01.2018 18:00:00 -10,1 -11,8 29 16 36 19 NE 12 0,0
21.01.2018 17:00:00 -9,6 -11,2 29 16 32 18 NE 10 0,0
21.01.2018 16:00:00 -8,8 -10,6 26 14 31 17 NE 9 0,0
21.01.2018 15:00:00 -7,8 -9,7 23 12 29 16 ENE 16 0,0
21.01.2018 14:00:00 -7,3 -9,1 23 12 28 15 ENE 7 0,0
21.01.2018 13:00:00 -6,8 -8,2 14 8 26 14 NE 10 0,0
21.01.2018 12:00:00 -9,2 -10,8 14 7 25 14 N 11 0,0
21.01.2018 11:00:00 -10,2 -11,9 19 11 25 14 N 9 0,0
21.01.2018 10:00:00 -10,4 -12,3 18 10 23 13 N 13 0,0
21.01.2018 09:00:00 -10,7 -12,6 18 10 22 12 N 16 0,0
21.01.2018 08:00:00 -11,0 -12,9 15 8 22 12 N 9 0,0
21.01.2018 07:00:00 -11,1 -13,0 16 9 23 13 N 8 0,1
21.01.2018 06:00:00 -10,9 -12,8 18 10 24 13 N 3,2 0,2
21.01.2018 05:00:00 -10,9 -12,8 20 11 24 13 N 1,4 0,1
21.01.2018 04:00:00 -11,0 -12,9 18 10 24 13 N 9 0,0
21.01.2018 03:00:00 -11,0 -12,9 16 9 24 13 N 7 0,0
21.01.2018 02:00:00 -11,4 -13,3 20 11 24 13 N 16 0,0
21.01.2018 01:00:00 -11,5 -13,5 17 9 24 13 N 13 0,1
21.01.2018 00:00:00 -11,5 -13,4 20 11 25 13 N 8 0,1
20.01.2018 23:00:00 -11,6 -13,5 21 11 25 14 N 3,9 0,1
20.01.2018 22:00:00 -11,5 -13,4 19 10 25 14 N 2,9 0,1
20.01.2018 21:00:00 -11,6 -13,6 19 11 24 13 N 6 0,1
20.01.2018 20:00:00 -11,6 -13,5 21 11 24 13 N 7 0,1
20.01.2018 19:00:00 -11,6 -13,5 18 10 23 13 N 11 0,0
20.01.2018 18:00:00 -11,6 -13,5 19 10 27 14 N 10 0,1
20.01.2018 17:00:00 -11,5 -13,2 20 11 27 15 N 10 0,1
20.01.2018 16:00:00 -10,2 -11,7 22 12 30 16 N 6 0,1
20.01.2018 15:00:00 -9,6 -11,2 23 13 30 16 NNE 6 0,1
20.01.2018 14:00:00 -9,0 -10,3 24 13 30 16 NNE 9 0,0
20.01.2018 13:00:00 -7,7 -9,1 26 14 30 16 NE 12 0,0
20.01.2018 12:00:00 -8,3 -9,5 26 14 30 16 NNE 8 0,0
20.01.2018 11:00:00 -9,0 -10,3 22 12 31 17 NNE 11 0,0
20.01.2018 10:00:00 -6,0 -7,5 19 10 35 19 ENE 17 0,0
20.01.2018 09:00:00 -5,7 -7,5 25 13 36 19 ENE 22 0,0
20.01.2018 08:00:00 -7,7 -8,9 30 16 36 19 NNE 9 0,0
20.01.2018 07:00:00 -8,0 -9,2 24 13 33 18 NNE 13 0,0
20.01.2018 06:00:00 -9,2 -10,5 27 15 32 17 NNE 8 0,0
20.01.2018 05:00:00 -9,8 -11,3 23 13 33 18 N 13 0,0
20.01.2018 04:00:00 -11,0 -12,6 27 14 33 18 NNE 6 0,1
20.01.2018 03:00:00 -11,3 -12,9 24 13 32 18 N 11 0,0
20.01.2018 02:00:00 -11,0 -12,6 25 13 32 18 N 5 0,1
20.01.2018 01:00:00 -9,6 -11,0 21 11 32 18 N 1,1 0,4
20.01.2018 00:00:00 -6,3 -7,7 24 13 32 17 NE 10 0,0
19.01.2018 23:00:00 -6,5 -7,9 24 13 32 17 NE 5 0,0
19.01.2018 22:00:00 -8,5 -9,8 15 8 23 12 N 13 0,1
19.01.2018 21:00:00 -10,4 -11,9 16 9 23 12 N 3,2 0,0
19.01.2018 20:00:00 -10,4 -11,9 15 8 21 11 N 6 0,0
19.01.2018 19:00:00 -10,5 -12,1 13 7 21 11 N 8 0,0
19.01.2018 18:00:00 -11,4 -13,0 15 8 23 12 N 20 0,0
19.01.2018 17:00:00 -11,7 -13,3 15 8 25 13 N 23 0,0
19.01.2018 16:00:00 -11,4 -13,0 16 9 25 13 N 24 0,0
19.01.2018 15:00:00 -10,9 -12,5 19 10 30 16 N 17 0,1
19.01.2018 14:00:00 -10,3 -11,9 18 10 30 16 N 4,0 0,2
19.01.2018 13:00:00 -10,4 -12,0 22 12 35 19 N 1,2 0,7
19.01.2018 12:00:00 -10,2 -11,8 26 14 35 19 N 1,5 0,1
19.01.2018 11:00:00 -10,4 -12,0 26 14 33 18 N 3,2 0,1
19.01.2018 10:00:00 -9,9 -11,5 27 15 37 20 N 4,0 0,1
19.01.2018 09:00:00 -9,3 -10,8 30 16 37 20 N 2,2 0,1
19.01.2018 08:00:00 -8,6 -10,1 29 16 39 21 N 4,6 0,0
19.01.2018 07:00:00 -7,3 -8,8 32 18 39 21 N 1,9 0,3
19.01.2018 06:00:00 -5,9 -7,9 30 16 38 20 NE 2,9 0,1
19.01.2018 05:00:00 -5,6 -7,4 23 13 36 20 NE 2,0 0,5
19.01.2018 04:00:00 -6,2 -7,9 29 15 36 20 NNE 2,0 0,2
19.01.2018 03:00:00 -5,3 -7,3 24 13 39 21 NNE 4,8 0,0
19.01.2018 02:00:00 -5,0 -7,1 29 16 42 23 NE 3,4 0,0
19.01.2018 01:00:00 -4,7 -6,7 32 17 43 23 NE 5 0,0
19.01.2018 00:00:00 -4,5 -6,3 35 19 45 24 NE 5 0,0
18.01.2018 23:00:00 -4,3 -6,3 35 19 45 24 ENE 1,1 0,3
18.01.2018 22:00:00 -3,7 -7,7 27 14 45 24 E 14 0,0
18.01.2018 21:00:00 -4,0 -7,4 34 18 45 24 E 17 0,1
18.01.2018 20:00:00 -3,9 -5,7 25 13 35 19 E 2,0 0,2
18.01.2018 19:00:00 -3,7 -5,7 25 14 37 20 E 2,3 0,0
18.01.2018 18:00:00 -3,5 -5,7 26 14 37 20 E 5 0,1
18.01.2018 17:00:00 -3,4 -5,9 28 15 34 18 E 9 0,1
18.01.2018 16:00:00 -3,8 -5,5 26 14 33 18 E 2,1 0,2
18.01.2018 15:00:00 -3,8 -6,3 22 12 32 18 E 3,6 0,0
18.01.2018 14:00:00 -3,9 -6,2 25 13 34 18 ESE 5 0,0
18.01.2018 13:00:00 -4,0 -6,0 26 14 34 18 E 3,0 0,0
18.01.2018 12:00:00 -4,0 -6,3 26 14 32 17 ESE 3,4 0,0
18.01.2018 11:00:00 -4,2 -7,0 23 12 32 18 E 7 0,0
18.01.2018 10:00:00 -4,4 -7,8 23 12 33 18 ESE 19 0,0
18.01.2018 09:00:00 -4,8 -7,2 27 15 36 19 E 3,5 0,0
18.01.2018 08:00:00 -5,2 -7,5 27 15 37 20 E 3,3 0,0
18.01.2018 07:00:00 -5,4 -8,0 27 14 40 22 E 6 0,0
18.01.2018 06:00:00 -5,7 -8,3 27 14 40 22 ENE 4,7 0,0
18.01.2018 05:00:00 -6,0 -9,2 26 14 38 20 E 8 0,0
18.01.2018 04:00:00 -6,0 -9,5 26 14 37 20 E 6 0,0

tt = Température de l'air
td = dewpoint
ff = Vitesse du vent
fx = gusts
dd = Direction du vent
vv = visibility
rr = Quantités de précipitations

stations d'obs. à proximité